Time;durP1;ratioP1;P1;durP2;ratioP2;P2;SDS_P1;SDS_P2;PMS_P1;PMS_P2;Temp;Humidity;BMP_temperature;BMP_pressure;BME280_temperature;BME280_humidity;BME280_pressure;Samples;Min_cycle;Max_cycle;Signal;HPM_P1;HPM_P2
2022/09/06 00:03:10;;;;;;;4.60;2.20;;;;;;;16.61;44.57;99779.45;238649;1192;140479;-59
2022/09/06 00:08:13;;;;;;;4.10;2.30;;;;;;;16.56;44.95;99777.52;238769;1190;140481;-58
2022/09/06 00:13:16;;;;;;;6.90;2.30;;;;;;;16.50;44.79;99776.15;238758;1190;139008;-58
2022/09/06 00:18:19;;;;;;;5.50;2.20;;;;;;;16.44;44.99;99769.42;238875;1190;140002;-58
2022/09/06 00:23:22;;;;;;;4.00;2.40;;;;;;;16.40;45.09;99766.73;238714;1190;139032;-59
2022/09/06 00:28:25;;;;;;;3.20;2.00;;;;;;;16.36;44.98;99757.86;238716;1192;139744;-58
2022/09/06 00:33:28;;;;;;;4.70;2.30;;;;;;;16.34;45.11;99759.65;238588;1190;139744;-59
2022/09/06 00:38:31;;;;;;;3.10;2.00;;;;;;;16.33;45.27;99759.30;238896;1190;139432;-59
2022/09/06 00:43:35;;;;;;;4.30;2.00;;;;;;;16.29;45.45;99759.82;238674;1190;139914;-59
2022/09/06 00:48:38;;;;;;;4.80;2.40;;;;;;;16.20;45.62;99756.34;238666;1192;140134;-59
2022/09/06 00:53:41;;;;;;;6.50;2.40;;;;;;;16.13;45.64;99754.02;238760;1190;140456;-59
2022/09/06 00:58:46;;;;;;;8.40;2.20;;;;;;;16.04;45.76;99756.46;238615;1190;139609;-58
2022/09/06 01:03:49;;;;;;;4.10;2.60;;;;;;;15.97;46.04;99762.36;238685;1191;224518;-58
2022/09/06 01:08:52;;;;;;;4.80;2.30;;;;;;;15.94;45.93;99767.95;238602;1192;138898;-58
2022/09/06 01:14:05;;;;;;;3.00;1.80;;;;;;;15.89;46.26;99765.63;238776;1190;139013;-58
2022/09/06 01:19:39;;;;;;;3.70;2.00;;;;;;;15.87;46.42;99767.21;238630;1190;139428;-58
2022/09/06 01:24:54;;;;;;;4.70;2.00;;;;;;;15.86;46.40;99760.11;238633;1190;139129;-57
2022/09/06 01:30:09;;;;;;;3.90;2.00;;;;;;;15.88;46.44;99758.20;238625;1191;139630;-57
2022/09/06 01:35:33;;;;;;;4.20;2.10;;;;;;;15.89;46.39;99753.45;238883;1190;139920;-57
2022/09/06 01:40:36;;;;;;;5.10;1.80;;;;;;;15.91;46.40;99749.97;238917;1190;139660;-58
2022/09/06 01:46:00;;;;;;;6.70;2.30;;;;;;;15.90;46.60;99745.88;238577;1192;139774;-58
2022/09/06 01:51:43;;;;;;;2.80;1.80;;;;;;;15.88;46.45;99745.86;238767;1190;139075;-58
2022/09/06 01:57:04;;;;;;;5.20;1.90;;;;;;;15.81;46.39;99744.73;238486;1191;140932;-58
2022/09/06 02:02:13;;;;;;;3.80;1.90;;;;;;;15.73;46.44;99741.15;238866;1190;139161;-57
2022/09/06 02:07:24;;;;;;;4.00;2.10;;;;;;;15.64;46.69;99738.56;238829;1192;139925;-58
2022/09/06 02:12:31;;;;;;;3.50;2.00;;;;;;;15.54;46.80;99737.33;238584;1192;139631;-58
2022/09/06 02:17:44;;;;;;;4.20;2.20;;;;;;;15.43;46.91;99739.20;238803;1190;139984;-58
2022/09/06 02:22:50;;;;;;;5.40;2.10;;;;;;;15.34;47.16;99732.67;238921;1190;139891;-58
2022/09/06 02:27:54;;;;;;;4.30;1.80;;;;;;;15.27;47.44;99731.21;238797;1191;139484;-59
2022/09/06 02:33:03;;;;;;;4.00;1.70;;;;;;;15.20;47.68;99736.13;238741;1191;139466;-58
2022/09/06 02:38:06;;;;;;;3.70;2.20;;;;;;;15.18;47.64;99732.34;238477;1192;140435;-58
2022/09/06 02:43:09;;;;;;;3.30;1.90;;;;;;;15.20;47.63;99725.81;238804;1190;138992;-58
2022/09/06 02:48:13;;;;;;;2.90;1.80;;;;;;;15.22;47.63;99724.21;238767;1191;139298;-58
2022/09/06 02:53:16;;;;;;;3.20;1.80;;;;;;;15.24;47.49;99716.91;238769;1190;140308;-60
2022/09/06 02:58:19;;;;;;;3.50;2.00;;;;;;;15.26;47.44;99717.66;238964;1191;139780;-58
2022/09/06 03:03:23;;;;;;;5.80;2.20;;;;;;;15.27;47.37;99716.15;238730;1191;139220;-59
2022/09/06 03:08:32;;;;;;;4.20;2.20;;;;;;;15.27;47.36;99715.67;238702;1191;139568;-59
2022/09/06 03:13:35;;;;;;;3.60;2.10;;;;;;;15.24;47.38;99712.65;238762;1191;139563;-58
2022/09/06 03:18:38;;;;;;;6.50;2.20;;;;;;;15.22;47.37;99709.38;238750;1192;139431;-58
2022/09/06 03:23:41;;;;;;;5.50;2.20;;;;;;;15.20;47.30;99708.15;238655;1191;139221;-59
2022/09/06 03:28:44;;;;;;;4.80;2.10;;;;;;;15.16;47.32;99709.08;238931;1191;139590;-60
2022/09/06 03:33:47;;;;;;;6.00;2.30;;;;;;;15.13;47.44;99709.08;238800;1190;139229;-58
2022/09/06 03:38:52;;;;;;;4.90;2.00;;;;;;;15.12;47.51;99708.98;238651;1191;238626;-59
2022/09/06 03:43:55;;;;;;;6.80;2.40;;;;;;;15.11;47.44;99709.61;238677;1192;139192;-57
2022/09/06 03:48:58;;;;;;;4.80;1.90;;;;;;;15.10;47.55;99707.92;238762;1191;139408;-58
2022/09/06 03:54:02;;;;;;;4.60;2.10;;;;;;;15.07;47.59;99711.46;238611;1191;139742;-60
2022/09/06 03:59:04;;;;;;;7.60;2.30;;;;;;;15.04;47.52;99705.64;238837;1192;139724;-58
2022/09/06 04:04:07;;;;;;;3.50;2.20;;;;;;;15.02;47.52;99707.17;238910;1191;139315;-58
2022/09/06 04:09:10;;;;;;;4.90;2.10;;;;;;;15.00;47.48;99706.97;238867;1190;139533;-57
2022/09/06 04:14:13;;;;;;;5.30;2.20;;;;;;;14.98;47.63;99711.04;238702;1190;140400;-58
2022/09/06 04:19:16;;;;;;;7.00;2.30;;;;;;;14.97;47.58;99707.41;238698;1191;139540;-59
2022/09/06 04:24:19;;;;;;;7.20;2.30;;;;;;;14.94;47.70;99707.38;238783;1192;139672;-59
2022/09/06 04:29:23;;;;;;;4.60;2.30;;;;;;;14.91;47.70;99708.52;238773;1190;140031;-59
2022/09/06 04:34:26;;;;;;;3.80;2.20;;;;;;;14.88;47.85;99707.96;238892;1192;139457;-59
2022/09/06 04:39:29;;;;;;;7.00;2.00;;;;;;;14.87;47.85;99710.23;238803;1192;139366;-57
2022/09/06 04:44:32;;;;;;;9.50;2.40;;;;;;;14.87;48.06;99717.19;238651;1191;139331;-58
2022/09/06 04:49:35;;;;;;;8.60;2.50;;;;;;;14.87;47.99;99720.54;238780;1190;139057;-57
2022/09/06 04:54:38;;;;;;;5.50;2.20;;;;;;;14.88;48.05;99721.19;238809;1190;139848;-58
2022/09/06 04:59:41;;;;;;;5.50;2.00;;;;;;;14.91;48.19;99721.20;238674;1191;139012;-58
2022/09/06 05:04:43;;;;;;;6.90;2.30;;;;;;;14.93;48.26;99717.65;238472;1191;139481;-58
2022/09/06 05:09:46;;;;;;;7.00;2.70;;;;;;;14.95;48.39;99721.33;238653;1191;139642;-56
2022/09/06 05:14:49;;;;;;;8.30;2.20;;;;;;;14.96;48.44;99724.63;238341;1192;139266;-57
2022/09/06 05:19:52;;;;;;;5.30;2.40;;;;;;;14.95;48.47;99718.23;238686;1190;139271;-58
2022/09/06 05:24:55;;;;;;;5.60;2.60;;;;;;;14.94;48.60;99716.53;238806;1190;139047;-58
2022/09/06 05:29:58;;;;;;;9.10;3.00;;;;;;;14.94;48.66;99721.88;238637;1191;239448;-58
2022/09/06 05:35:08;;;;;;;9.50;3.00;;;;;;;14.96;48.89;99724.98;238703;1191;139134;-58
2022/09/06 05:40:11;;;;;;;12.00;3.20;;;;;;;14.99;49.01;99728.32;238902;1190;139197;-56
2022/09/06 05:45:15;;;;;;;6.50;3.00;;;;;;;15.04;49.06;99733.66;238704;1190;139516;-58
2022/09/06 05:50:18;;;;;;;6.50;3.10;;;;;;;15.12;48.94;99734.41;238496;1192;140888;-58
2022/09/06 05:55:21;;;;;;;11.00;3.20;;;;;;;15.20;48.89;99737.04;238721;1191;139080;-58
2022/09/06 06:00:24;;;;;;;10.30;3.00;;;;;;;15.29;48.98;99735.51;238796;1190;139682;-56
2022/09/06 06:05:27;;;;;;;9.50;3.00;;;;;;;15.40;49.09;99740.29;238808;1190;139888;-56
2022/09/06 06:10:30;;;;;;;11.70;3.00;;;;;;;15.49;49.05;99742.85;238859;1191;139316;-57
2022/09/06 06:15:40;;;;;;;6.70;2.90;;;;;;;15.54;49.05;99744.27;238483;1192;140043;-58
2022/09/06 06:20:42;;;;;;;9.10;3.20;;;;;;;15.59;48.85;99734.79;238846;1190;140409;-59
2022/09/06 06:25:45;;;;;;;4.80;2.30;;;;;;;15.65;49.03;99733.73;238538;1192;139617;-59
2022/09/06 06:30:48;;;;;;;11.20;2.60;;;;;;;15.73;49.35;99739.42;237980;1190;139208;-59
2022/09/06 06:36:05;;;;;;;15.60;2.80;;;;;;;15.86;49.43;99738.09;238392;1192;140185;-59
2022/09/06 06:41:10;;;;;;;5.40;3.00;;;;;;;16.00;49.06;99737.23;238701;1191;139436;-58
2022/09/06 06:46:15;;;;;;;7.20;2.70;;;;;;;16.12;49.28;99732.23;238944;1191;139501;-60
2022/09/06 06:51:19;;;;;;;6.60;2.40;;;;;;;16.21;49.10;99734.59;238671;1192;139445;-59
2022/09/06 06:56:29;;;;;;;12.30;3.50;;;;;;;16.32;49.36;99732.71;238773;1191;140187;-59
2022/09/06 07:01:34;;;;;;;5.00;3.00;;;;;;;16.45;49.41;99740.50;238687;1191;139513;-59
2022/09/06 07:06:49;;;;;;;8.10;3.80;;;;;;;16.56;49.13;99740.63;238724;1192;139378;-59
2022/09/06 07:12:12;;;;;;;8.00;2.90;;;;;;;16.64;48.98;99743.59;238853;1190;140102;-57
2022/09/06 07:17:15;;;;;;;6.70;3.10;;;;;;;16.68;49.12;99736.11;238771;1191;139812;-59
2022/09/06 07:22:17;;;;;;;12.70;3.20;;;;;;;16.73;48.81;99733.91;238820;1190;143039;-60
2022/09/06 07:27:21;;;;;;;8.20;3.00;;;;;;;16.81;48.95;99733.13;238703;1192;139824;-60
2022/09/06 07:32:43;;;;;;;8.90;3.30;;;;;;;16.95;48.97;99737.48;238740;1190;139805;-59
2022/09/06 07:37:57;;;;;;;4.70;2.70;;;;;;;17.12;48.98;99741.71;238742;1190;139854;-62
2022/09/06 07:43:00;;;;;;;6.20;2.80;;;;;;;17.28;49.06;99746.36;238597;1192;139154;-60
2022/09/06 07:48:03;;;;;;;7.70;3.20;;;;;;;17.42;49.20;99745.77;238504;1191;139745;-57
2022/09/06 07:53:08;;;;;;;6.90;3.50;;;;;;;17.62;49.28;99748.31;238625;1190;139532;-59
2022/09/06 07:58:19;;;;;;;8.20;3.70;;;;;;;17.87;49.46;99744.44;238891;1190;139278;-60
2022/09/06 08:03:22;;;;;;;7.80;3.70;;;;;;;18.14;50.17;99741.48;238640;1191;139617;-60
2022/09/06 08:08:25;;;;;;;7.40;2.70;;;;;;;18.67;51.29;99739.73;238561;1192;140076;-60
2022/09/06 08:13:50;;;;;;;6.90;2.90;;;;;;;19.23;50.70;99733.14;238655;1190;140425;-59
2022/09/06 08:18:55;;;;;;;7.50;3.40;;;;;;;19.52;49.74;99733.19;238784;1190;139665;-60
2022/09/06 08:24:03;;;;;;;4.30;2.80;;;;;;;19.74;49.32;99728.90;238544;1192;140173;-60
2022/09/06 08:29:08;;;;;;;4.70;2.90;;;;;;;19.90;48.70;99728.52;238671;1190;141666;-61
2022/09/06 08:34:13;;;;;;;10.80;2.90;;;;;;;20.03;48.25;99724.81;238898;1190;139733;-60
2022/09/06 08:39:17;;;;;;;7.50;2.80;;;;;;;20.04;47.44;99716.11;238772;1190;139649;-59
2022/09/06 08:44:36;;;;;;;13.60;3.40;;;;;;;20.03;46.95;99710.41;238755;1192;139557;-59
2022/09/06 08:50:04;;;;;;;7.20;2.90;;;;;;;20.03;46.79;99710.84;238571;1190;140729;-59
2022/09/06 08:55:21;;;;;;;7.80;2.40;;;;;;;20.00;46.54;99710.49;238806;1190;139567;-59
2022/09/06 09:00:24;;;;;;;6.80;2.30;;;;;;;20.03;46.33;99710.64;238771;1190;139341;-58
2022/09/06 09:05:33;;;;;;;4.70;2.20;;;;;;;20.09;46.08;99719.11;238471;1192;142136;-59
2022/09/06 09:10:53;;;;;;;6.70;2.20;;;;;;;20.12;45.85;99711.48;238750;1192;143341;-59
2022/09/06 09:15:57;;;;;;;8.10;2.40;;;;;;;20.21;45.83;99710.26;238664;1191;139291;-59
2022/09/06 09:21:01;;;;;;;5.90;2.50;;;;;;;20.33;45.91;99699.05;238538;1192;140407;-60
2022/09/06 09:26:10;;;;;;;5.20;2.20;;;;;;;20.51;45.70;99687.17;238573;1190;140163;-60
2022/09/06 09:31:32;;;;;;;8.10;2.00;;;;;;;20.67;45.64;99680.29;238782;1190;139107;-59
2022/09/06 09:36:35;;;;;;;6.20;2.20;;;;;;;20.83;45.26;99679.10;238641;1191;139699;-60
2022/09/06 09:41:42;;;;;;;5.40;2.00;;;;;;;20.92;44.46;99675.11;238457;1192;139484;-59
2022/09/06 09:46:45;;;;;;;7.60;1.60;;;;;;;21.00;43.85;99661.02;238763;1192;140250;-59
2022/09/06 09:52:09;;;;;;;11.30;2.50;;;;;;;21.09;43.64;99653.20;238635;1190;139552;-58
2022/09/06 09:57:16;;;;;;;9.20;1.70;;;;;;;21.21;43.39;99649.83;238743;1190;139126;-59
2022/09/06 10:02:39;;;;;;;4.50;1.90;;;;;;;21.36;43.32;99640.66;238773;1190;139732;-58
2022/09/06 10:07:53;;;;;;;4.00;1.90;;;;;;;21.51;43.10;99632.85;238548;1191;139807;-60
2022/09/06 10:13:28;;;;;;;3.00;1.60;;;;;;;21.65;42.87;99622.43;238522;1190;139909;-57
2022/09/06 10:18:37;;;;;;;;;;;;;;;21.86;42.63;99620.06;238795;1190;139832;-58
2022/09/06 10:23:55;;;;;;;5.30;1.60;;;;;;;21.83;42.36;99614.21;238765;1190;125739;-58
2022/09/06 10:29:29;;;;;;;7.80;1.70;;;;;;;21.75;41.99;99606.48;238578;1191;140467;-58
2022/09/06 10:34:53;;;;;;;6.10;1.70;;;;;;;21.74;41.59;99605.15;238763;1192;139516;-58
2022/09/06 10:40:08;;;;;;;4.70;1.60;;;;;;;21.72;41.55;99599.91;238830;1190;139236;-59
2022/09/06 10:45:42;;;;;;;3.30;1.70;;;;;;;21.69;41.68;99595.48;238619;1190;140142;-59
2022/09/06 10:50:51;;;;;;;4.30;1.50;;;;;;;21.64;41.61;99598.91;238203;1191;142740;-57
2022/09/06 10:56:11;;;;;;;2.50;1.40;;;;;;;21.63;41.35;99594.49;238674;1190;139324;-58
2022/09/06 11:01:53;;;;;;;3.20;1.60;;;;;;;21.72;41.38;99595.27;238742;1191;140710;-59
2022/09/06 11:07:03;;;;;;;3.70;1.50;;;;;;;21.93;41.21;99592.00;238603;1191;139613;-57
2022/09/06 11:12:18;;;;;;;4.70;1.80;;;;;;;22.16;40.97;99585.52;238487;1192;139694;-59
2022/09/06 11:17:40;;;;;;;2.80;1.30;;;;;;;22.43;40.73;99579.75;238465;1190;139892;-59
2022/09/06 11:23:05;;;;;;;6.70;1.60;;;;;;;22.70;40.58;99576.95;238975;1192;139445;-58
2022/09/06 11:28:14;;;;;;;7.90;2.00;;;;;;;22.85;40.21;99569.22;238713;1191;139619;-58
2022/09/06 11:33:23;;;;;;;100.10;75.40;;;;;;;22.81;40.21;99566.52;238575;1192;141863;-58
2022/09/06 11:38:26;;;;;;;5.50;2.70;;;;;;;22.80;39.86;99562.16;238711;1190;140638;-58
2022/09/06 11:43:44;;;;;;;6.00;1.90;;;;;;;22.89;39.95;99554.84;238801;1190;140077;-58
2022/09/06 11:49:25;;;;;;;4.30;1.90;;;;;;;23.10;39.67;99551.58;238609;1192;139350;-58
2022/09/06 11:54:43;;;;;;;4.20;1.70;;;;;;;23.16;39.31;99539.91;238161;1190;140527;-58
2022/09/06 11:59:46;;;;;;;8.90;1.80;;;;;;;23.23;39.28;99540.85;238350;1190;139122;-57
2022/09/06 12:05:06;;;;;;;5.50;1.70;;;;;;;23.18;39.08;99551.30;238524;1190;140054;-60
2022/09/06 12:10:27;;;;;;;5.00;1.80;;;;;;;23.10;38.85;99546.52;238762;1190;139601;-58
2022/09/06 12:15:43;;;;;;;8.60;1.70;;;;;;;23.22;39.35;99540.71;238691;1191;139544;-59
2022/09/06 12:20:51;;;;;;;4.70;1.70;;;;;;;23.43;39.41;99533.05;238765;1190;140852;-59
2022/09/06 12:25:55;;;;;;;7.50;2.10;;;;;;;23.74;39.00;99530.40;238650;1191;138957;-59
2022/09/06 12:30:58;;;;;;;5.10;2.10;;;;;;;24.03;38.60;99531.20;238382;1192;140595;-58
2022/09/06 12:36:23;;;;;;;8.70;1.90;;;;;;;24.24;38.44;99522.48;238454;1191;139357;-59
2022/09/06 12:41:29;;;;;;;7.80;1.90;;;;;;;24.47;38.34;99513.52;238741;1190;139658;-59
2022/09/06 12:46:33;;;;;;;8.30;1.80;;;;;;;24.48;37.84;99513.03;238870;1190;139488;-58
2022/09/06 12:51:39;;;;;;;6.00;1.90;;;;;;;24.26;37.50;99507.45;238482;1191;140122;-58
2022/09/06 12:56:41;;;;;;;6.00;2.20;;;;;;;24.14;37.54;99499.88;238579;1191;139198;-58
2022/09/06 13:01:56;;;;;;;6.10;2.20;;;;;;;24.23;37.43;99489.79;238551;1192;139202;-58
2022/09/06 13:07:02;;;;;;;3.80;1.80;;;;;;;24.47;37.20;99488.27;238628;1190;141257;-58
2022/09/06 13:12:16;;;;;;;6.80;2.10;;;;;;;24.49;36.81;99484.80;238613;1192;139772;-58
2022/09/06 13:17:27;;;;;;;6.10;2.00;;;;;;;24.19;36.46;99489.89;238463;1191;139322;-58
2022/09/06 13:22:46;;;;;;;5.80;1.80;;;;;;;24.00;36.47;99486.58;238546;1192;140072;-59
2022/09/06 13:27:55;;;;;;;4.40;1.90;;;;;;;23.82;36.74;99484.39;238565;1191;139659;-58
2022/09/06 13:32:59;;;;;;;10.10;2.60;;;;;;;23.75;36.93;99476.89;238600;1190;141246;-58
2022/09/06 13:38:32;;;;;;;4.80;2.00;;;;;;;23.78;37.10;99475.11;238369;1192;140334;-58
2022/09/06 13:43:43;;;;;;;9.90;2.10;;;;;;;23.86;37.14;99475.59;238580;1192;139290;-59
2022/09/06 13:48:46;;;;;;;5.90;2.00;;;;;;;23.81;37.17;99459.73;238518;1191;139153;-57
2022/09/06 13:53:49;;;;;;;6.70;1.80;;;;;;;23.68;37.32;99458.42;238650;1192;139530;-58
2022/09/06 13:58:52;;;;;;;6.40;2.20;;;;;;;23.57;37.26;99451.42;238557;1192;139590;-57
2022/09/06 14:03:56;;;;;;;3.70;2.00;;;;;;;23.63;37.39;99447.70;238320;1191;139966;-59
2022/09/06 14:09:00;;;;;;;4.00;1.70;;;;;;;23.86;37.52;99437.36;238459;1191;139847;-59
2022/09/06 14:14:11;;;;;;;17.60;8.00;;;;;;;23.92;37.10;99439.78;238571;1190;139547;-59
2022/09/06 14:19:14;;;;;;;8.90;3.00;;;;;;;23.77;36.88;99443.11;238594;1191;138815;-59
2022/09/06 14:24:17;;;;;;;6.10;2.20;;;;;;;23.60;36.98;99444.40;238538;1191;140616;-58
2022/09/06 14:29:20;;;;;;;5.50;2.50;;;;;;;23.46;36.97;99437.12;238644;1191;139645;-59
2022/09/06 14:34:24;;;;;;;6.70;2.40;;;;;;;23.34;37.07;99429.66;238999;1190;140082;-59
2022/09/06 14:39:27;;;;;;;6.50;2.00;;;;;;;23.25;37.17;99430.91;238671;1190;139699;-60
2022/09/06 14:44:30;;;;;;;5.00;2.10;;;;;;;23.14;37.51;99426.46;238480;1191;139943;-59
2022/09/06 14:49:33;;;;;;;5.60;2.10;;;;;;;23.02;37.88;99418.93;238550;1191;139657;-58
2022/09/06 14:54:36;;;;;;;5.90;2.30;;;;;;;22.88;37.93;99422.86;238589;1191;139429;-58
2022/09/06 14:59:40;;;;;;;6.50;2.10;;;;;;;22.80;38.23;99421.69;238760;1190;139300;-59
2022/09/06 15:04:43;;;;;;;7.80;2.30;;;;;;;22.75;38.44;99427.73;238923;1190;139235;-59
2022/09/06 15:09:46;;;;;;;5.20;1.80;;;;;;;22.73;38.27;99427.42;238693;1190;140157;-59
2022/09/06 15:14:49;;;;;;;14.60;2.80;;;;;;;22.70;37.91;99429.83;238734;1191;140201;-59
2022/09/06 15:19:53;;;;;;;12.50;2.70;;;;;;;22.69;37.71;99429.08;238561;1191;139469;-59
2022/09/06 15:24:55;;;;;;;13.30;4.20;;;;;;;22.68;37.66;99431.58;238614;1190;140371;-60
2022/09/06 15:29:58;;;;;;;9.00;3.30;;;;;;;22.61;37.78;99420.86;238502;1191;139975;-60
2022/09/06 15:35:02;;;;;;;8.10;2.30;;;;;;;22.57;37.69;99416.64;238741;1191;139810;-60
2022/09/06 15:40:08;;;;;;;42.20;25.60;;;;;;;22.48;37.63;99411.62;238626;1190;140356;-58
2022/09/06 15:45:11;;;;;;;12.70;7.30;;;;;;;22.42;37.77;99409.89;238737;1190;140312;-58
2022/09/06 15:50:14;;;;;;;11.90;3.50;;;;;;;22.41;38.35;99411.42;238598;1190;140285;-59
2022/09/06 15:55:55;;;;;;;11.80;3.20;;;;;;;22.35;38.51;99410.07;238486;1192;139519;-60
2022/09/06 16:01:10;;;;;;;7.70;3.30;;;;;;;22.26;38.54;99406.65;238617;1192;139844;-59
2022/09/06 16:06:26;;;;;;;7.70;2.70;;;;;;;22.22;39.24;99401.38;238745;1190;140563;-60
2022/09/06 16:11:35;;;;;;;13.40;3.80;;;;;;;22.15;39.51;99404.88;238994;1190;139209;-60
2022/09/06 16:16:39;;;;;;;8.40;3.20;;;;;;;22.08;39.75;99400.71;238878;1190;140497;-60
2022/09/06 16:21:42;;;;;;;5.70;2.70;;;;;;;22.02;40.01;99401.19;238642;1190;140734;-59
2022/09/06 16:26:45;;;;;;;6.40;2.80;;;;;;;21.95;40.43;99400.23;238630;1191;139487;-60
2022/09/06 16:31:49;;;;;;;7.50;2.70;;;;;;;21.90;40.62;99395.90;238574;1190;139795;-59
2022/09/06 16:36:54;;;;;;;5.10;2.60;;;;;;;21.85;40.65;99395.59;238682;1190;139180;-60
2022/09/06 16:41:57;;;;;;;10.30;2.60;;;;;;;21.79;40.67;99397.70;238605;1190;139481;-60
2022/09/06 16:47:02;;;;;;;7.70;2.60;;;;;;;21.71;40.48;99396.44;238670;1192;139243;-58
2022/09/06 16:52:05;;;;;;;6.30;2.60;;;;;;;21.64;40.40;99392.86;238623;1190;139277;-59
2022/09/06 16:57:08;;;;;;;7.80;2.20;;;;;;;21.57;40.31;99390.13;238587;1192;140246;-60
2022/09/06 17:02:11;;;;;;;9.60;2.80;;;;;;;21.51;40.21;99386.59;238735;1190;139957;-59
2022/09/06 17:07:14;;;;;;;14.30;8.80;;;;;;;21.44;40.24;99391.95;238647;1191;139690;-57
2022/09/06 17:12:18;;;;;;;21.00;13.00;;;;;;;21.37;40.12;99388.77;238693;1190;140728;-59
2022/09/06 17:17:21;;;;;;;9.10;4.70;;;;;;;21.27;40.12;99386.24;238710;1191;140888;-58
2022/09/06 17:22:24;;;;;;;11.80;4.80;;;;;;;21.18;40.13;99383.25;238765;1191;139790;-59
2022/09/06 17:27:27;;;;;;;16.40;7.60;;;;;;;21.10;40.22;99381.55;238511;1192;139297;-60
2022/09/06 17:32:30;;;;;;;15.10;6.30;;;;;;;21.05;40.43;99387.39;238619;1190;139695;-60
2022/09/06 17:37:34;;;;;;;11.80;5.70;;;;;;;21.01;40.42;99394.69;238683;1190;139628;-57
2022/09/06 17:42:37;;;;;;;8.80;4.50;;;;;;;20.90;40.08;99401.20;238566;1190;139460;-57
2022/09/06 17:47:40;;;;;;;11.30;4.10;;;;;;;20.80;40.23;99402.88;238473;1192;139469;-59
2022/09/06 17:52:43;;;;;;;12.00;4.10;;;;;;;20.73;40.25;99405.70;238822;1190;140939;-59
2022/09/06 17:57:47;;;;;;;9.70;4.10;;;;;;;20.67;39.84;99413.03;238806;1190;139682;-59
2022/09/06 18:02:51;;;;;;;11.80;3.60;;;;;;;20.59;40.03;99413.50;238666;1190;139924;-59
2022/09/06 18:07:54;;;;;;;9.10;3.30;;;;;;;20.51;39.88;99414.34;238627;1191;141747;-59
2022/09/06 18:12:57;;;;;;;6.80;3.60;;;;;;;20.45;40.13;99416.44;238655;1190;138803;-59
2022/09/06 18:18:01;;;;;;;8.10;3.90;;;;;;;20.42;40.45;99413.96;238809;1190;140153;-60
2022/09/06 18:23:04;;;;;;;7.20;3.70;;;;;;;20.40;40.42;99423.33;238850;1190;140015;-59
2022/09/06 18:28:07;;;;;;;8.60;3.40;;;;;;;20.40;40.81;99421.27;238574;1191;140972;-59
2022/09/06 18:33:12;;;;;;;10.70;3.60;;;;;;;20.36;40.65;99427.51;238748;1190;139243;-58
2022/09/06 18:38:17;;;;;;;9.90;3.00;;;;;;;20.29;40.16;99435.41;238803;1190;139539;-60
2022/09/06 18:43:21;;;;;;;9.60;3.40;;;;;;;20.11;39.78;99441.25;238731;1190;139584;-59
2022/09/06 18:48:24;;;;;;;6.40;2.90;;;;;;;19.93;39.73;99440.48;238812;1190;140122;-59
2022/09/06 18:53:28;;;;;;;6.20;2.90;;;;;;;19.76;39.79;99447.14;238642;1191;139423;-58
2022/09/06 18:58:32;;;;;;;8.10;2.90;;;;;;;19.62;39.88;99440.30;238715;1191;139474;-59
2022/09/06 19:03:36;;;;;;;7.00;3.60;;;;;;;19.50;39.94;99437.65;238658;1191;139771;-59
2022/09/06 19:08:40;;;;;;;6.10;2.50;;;;;;;19.36;40.01;99434.05;238728;1190;140845;-59
2022/09/06 19:13:45;;;;;;;7.20;2.80;;;;;;;19.24;40.15;99434.98;238656;1190;141110;-59
2022/09/06 19:18:49;;;;;;;7.50;2.50;;;;;;;19.14;40.16;99440.02;238691;1192;140222;-58
2022/09/06 19:24:05;;;;;;;9.60;2.70;;;;;;;19.04;40.19;99438.27;238639;1191;139744;-59
2022/09/06 19:29:13;;;;;;;6.60;2.90;;;;;;;18.96;40.28;99438.08;238805;1191;139861;-58
2022/09/06 19:34:16;;;;;;;6.70;2.60;;;;;;;18.87;40.33;99434.70;238737;1190;140004;-59
2022/09/06 19:39:20;;;;;;;4.50;2.40;;;;;;;18.83;40.52;99431.38;238642;1190;139781;-59
2022/09/06 19:44:23;;;;;;;5.60;2.50;;;;;;;18.74;40.48;99432.54;238755;1190;139382;-58
2022/09/06 19:49:27;;;;;;;7.70;2.60;;;;;;;18.62;40.47;99432.95;238621;1191;139862;-59
2022/09/06 19:54:30;;;;;;;6.40;3.20;;;;;;;18.52;40.54;99429.94;238624;1192;139389;-59
2022/09/06 19:59:35;;;;;;;5.70;2.80;;;;;;;18.44;40.66;99427.27;238641;1191;139745;-59
2022/09/06 20:04:38;;;;;;;5.50;2.60;;;;;;;18.36;40.55;99419.71;238673;1190;139353;-59
2022/09/06 20:09:41;;;;;;;5.20;2.40;;;;;;;18.29;40.65;99418.85;238774;1190;139293;-60
2022/09/06 20:14:45;;;;;;;6.30;2.80;;;;;;;18.21;40.59;99414.40;238705;1190;141208;-59
2022/09/06 20:19:48;;;;;;;7.40;2.40;;;;;;;18.11;40.75;99412.32;238619;1191;139324;-58
2022/09/06 20:24:51;;;;;;;5.20;2.30;;;;;;;18.03;40.72;99415.41;238510;1191;139929;-58
2022/09/06 20:29:54;;;;;;;7.30;2.50;;;;;;;17.94;40.70;99415.64;238756;1190;140325;-59
2022/09/06 20:34:57;;;;;;;3.70;2.00;;;;;;;17.85;40.76;99409.95;238840;1192;138956;-60
2022/09/06 20:40:00;;;;;;;4.70;2.00;;;;;;;17.77;40.59;99412.81;238683;1191;139981;-59
2022/09/06 20:45:04;;;;;;;4.20;2.00;;;;;;;17.69;40.60;99421.84;238607;1192;140194;-59
2022/09/06 20:50:07;;;;;;;4.60;2.00;;;;;;;17.65;40.64;99421.46;238755;1190;140698;-59
2022/09/06 20:55:10;;;;;;;6.00;2.10;;;;;;;17.60;40.66;99419.92;238690;1192;141338;-59
2022/09/06 21:00:13;;;;;;;3.40;2.20;;;;;;;17.55;40.40;99415.41;238706;1191;142662;-59
2022/09/06 21:05:16;;;;;;;6.80;2.00;;;;;;;17.50;40.29;99417.92;238754;1190;141500;-59
2022/09/06 21:10:19;;;;;;;4.30;2.10;;;;;;;17.40;40.05;99412.46;238921;1190;139564;-59
2022/09/06 21:15:22;;;;;;;4.70;1.80;;;;;;;17.32;40.15;99413.19;238694;1190;139983;-58
2022/09/06 21:20:25;;;;;;;5.60;2.10;;;;;;;17.24;40.13;99413.30;238538;1192;140160;-59
2022/09/06 21:25:28;;;;;;;2.90;1.70;;;;;;;17.17;40.03;99415.10;238434;1191;140351;-59
2022/09/06 21:30:31;;;;;;;4.10;1.70;;;;;;;17.13;40.20;99411.02;238702;1190;139683;-59
2022/09/06 21:35:34;;;;;;;4.70;1.90;;;;;;;17.08;40.03;99409.27;238731;1190;140639;-59
2022/09/06 21:40:37;;;;;;;5.70;1.90;;;;;;;17.03;39.89;99411.09;238851;1192;140767;-59
2022/09/06 21:45:40;;;;;;;3.30;1.60;;;;;;;17.00;39.83;99414.04;238608;1191;139495;-59
2022/09/06 21:50:50;;;;;;;3.80;1.60;;;;;;;16.96;39.70;99411.88;238783;1190;139299;-59
2022/09/06 21:56:01;;;;;;;3.80;1.80;;;;;;;16.93;39.76;99403.13;238585;1192;139227;-58
2022/09/06 22:01:05;;;;;;;4.40;1.80;;;;;;;16.90;39.74;99400.75;238684;1192;140111;-58
2022/09/06 22:06:23;;;;;;;6.20;1.80;;;;;;;16.87;39.58;99395.04;238752;1190;139824;-58
2022/09/06 22:11:29;;;;;;;5.10;1.80;;;;;;;16.84;39.74;99390.84;238510;1192;139511;-57
2022/09/06 22:16:35;;;;;;;2.70;1.70;;;;;;;16.78;39.59;99395.23;238596;1192;139416;-58
2022/09/06 22:21:39;;;;;;;3.10;1.70;;;;;;;16.75;39.70;99392.06;238608;1192;139760;-59
2022/09/06 22:26:42;;;;;;;3.40;1.90;;;;;;;16.75;39.67;99387.95;238627;1191;142422;-57
2022/09/06 22:31:45;;;;;;;4.60;1.70;;;;;;;16.71;39.48;99379.46;238764;1190;139497;-59
2022/09/06 22:36:49;;;;;;;5.40;2.10;;;;;;;16.65;39.56;99375.11;238818;1190;140520;-60
2022/09/06 22:41:53;;;;;;;5.30;1.60;;;;;;;16.63;39.46;99369.27;238806;1191;139035;-58
2022/09/06 22:46:56;;;;;;;2.30;1.50;;;;;;;16.61;39.34;99370.11;238739;1191;140031;-58
2022/09/06 22:52:00;;;;;;;4.90;1.50;;;;;;;16.59;39.50;99371.70;237896;1192;139820;-59
2022/09/06 22:57:03;;;;;;;3.20;1.60;;;;;;;16.52;39.60;99368.15;238610;1192;139158;-60
2022/09/06 23:02:07;;;;;;;2.90;1.60;;;;;;;16.47;39.46;99370.14;238849;1190;139914;-59
2022/09/06 23:07:10;;;;;;;4.30;1.90;;;;;;;16.43;39.42;99376.37;238748;1192;140268;-60
2022/09/06 23:12:13;;;;;;;8.10;1.60;;;;;;;16.40;39.46;99372.72;238757;1191;139340;-60
2022/09/06 23:17:16;;;;;;;4.40;1.80;;;;;;;16.35;39.53;99368.10;238582;1192;139981;-59
2022/09/06 23:22:19;;;;;;;5.00;1.60;;;;;;;16.30;39.62;99368.30;238823;1192;139810;-60
2022/09/06 23:27:23;;;;;;;5.60;1.70;;;;;;;16.27;39.50;99371.92;238666;1192;141179;-60
2022/09/06 23:32:26;;;;;;;5.40;1.90;;;;;;;16.25;39.81;99368.70;238648;1192;139622;-59